Gainesville Regional Airport Gainesville US
ICAO: KGNV
IATA: GNV
Category: Medium
Scheduled Services: Yes

Elevation: 152 ft
TransAlt. 18000 ft.

Airport Communications:
JACKSONVILLE APP/DEP:118.175
ATIS:127.15
CTAF:119.55
GND:121.7
RDO:122.1
RDO:122.2
TWR:119.55
UNICOM:122.95

KGNV Zoom In..

Runways:

(A) RW 07 length 4158 ft width 100 ft
---- / hdg 65

(B) RW 11 length 7504 ft width 150 ft
---- / hdg 106

(C) RW 25 length 4158 ft width 100 ft
---- / hdg 245

(D) RW 29 length 7504 ft width 150 ft
ILS 111.30 / hdg 286

Location; KGNV
Day. 20 / Time. 20.21 Zulu
* Altimeter: 29.98
* Temperature: 26° c. 78.8°f.
* Wind from: 220° Speed 06 kn.
Dewpoint: 24° c.
Visibility: 5 Statute Miles.
Clouds: Scattered 1300 ft.
Clouds: Broken 5500 ft.
Clouds: Overcast 8500 ft.
Conditions: Light Rain.Conditions: Mist.

KGNV 202021Z 22006KT 5SM -RA BR SCT013 BKN055 OVC085 26/24 A2998 RMK AO2 P0001 T02610239


Wind From 220°
Speed 06 kn.

 
 
jpsmedia.com for Web Design worldairports.se 2018   terms of use